Time;durP1;ratioP1;P1;durP2;ratioP2;P2;SDS_P1;SDS_P2;PMS_P1;PMS_P2;Temp;Humidity;BMP_temperature;BMP_pressure;BME280_temperature;BME280_humidity;BME280_pressure;Samples;Min_cycle;Max_cycle;Signal;HPM_P1;HPM_P2
2022/06/23 00:01:45;;;;;;;17.07;13.62;;;;;;;14.37;78.53;99377.17;1673215;85;20928;-92
2022/06/23 00:04:14;;;;;;;17.35;13.75;;;;;;;14.40;78.61;99382.14;1641101;87;21429;-92
2022/06/23 00:06:54;;;;;;;22.05;13.68;;;;;;;14.43;78.94;99370.00;1681743;85;20912;-91
2022/06/23 00:09:51;;;;;;;20.80;14.18;;;;;;;14.43;78.94;99370.00;1682065;85;21185;-92
2022/06/23 00:12:37;;;;;;;22.98;13.58;;;;;;;14.45;78.60;99377.74;1682015;85;20963;-91
2022/06/23 00:15:09;;;;;;;20.60;12.47;;;;;;;14.47;78.28;99382.38;1659369;85;20932;-92
2022/06/23 00:17:48;;;;;;;18.42;12.28;;;;;;;14.44;78.12;99375.60;1679644;85;21529;-91
2022/06/23 00:20:23;;;;;;;19.48;13.20;;;;;;;14.44;78.12;99375.60;1676588;85;20997;-92
2022/06/23 00:22:53;;;;;;;19.20;13.20;;;;;;;14.43;78.18;99370.00;1677656;85;21207;-90
2022/06/23 00:25:50;;;;;;;20.30;12.45;;;;;;;14.41;78.15;99367.17;1677605;85;20877;-91
2022/06/23 00:28:48;;;;;;;15.38;12.10;;;;;;;14.34;78.26;99373.53;1677165;85;20960;-90
2022/06/23 00:31:32;;;;;;;14.50;10.70;;;;;;;14.31;78.43;99377.26;1640838;87;20972;-92
2022/06/23 00:34:01;;;;;;;10.43;8.10;;;;;;;14.31;78.43;99377.26;1579585;90;21011;-91
2022/06/23 00:36:43;;;;;;;10.45;8.13;;;;;;;14.29;78.82;99373.11;1596657;89;21540;-91
2022/06/23 00:39:37;;;;;;;8.80;6.87;;;;;;;14.29;78.88;99377.07;1596681;89;20907;-90
2022/06/23 00:42:18;;;;;;;7.08;5.92;;;;;;;14.26;78.95;99379.52;1560521;92;21010;-89
2022/06/23 00:45:14;;;;;;;9.93;5.33;;;;;;;14.26;79.06;99372.92;1551023;92;21006;-90
2022/06/23 00:48:01;;;;;;;5.28;4.83;;;;;;;14.29;79.10;99376.61;1559959;92;21021;-91
2022/06/23 00:50:48;;;;;;;5.20;4.70;;;;;;;14.29;79.10;99376.61;1559783;90;21608;-91
2022/06/23 00:53:31;;;;;;;5.28;4.35;;;;;;;14.33;79.16;99378.94;1560223;92;21631;-90
2022/06/23 00:56:22;;;;;;;4.90;4.50;;;;;;;14.36;79.24;99388.72;1559502;90;20999;-91
2022/06/23 00:59:05;;;;;;;5.40;4.90;;;;;;;14.42;79.19;99390.74;1560169;92;21827;-91
2022/06/23 01:01:49;;;;;;;4.83;4.43;;;;;;;14.42;79.19;99390.74;1573752;88;21385;-90
2022/06/23 01:05:07;;;;;;;4.50;4.17;;;;;;;14.45;79.14;99389.61;1613600;88;21665;-90
2022/06/23 01:08:02;;;;;;;4.42;4.12;;;;;;;14.47;79.09;99393.80;1577348;90;20894;-90
2022/06/23 01:10:44;;;;;;;4.28;3.90;;;;;;;14.49;79.10;99386.53;1603822;89;20935;-92
2022/06/23 01:13:29;;;;;;;5.92;4.20;;;;;;;14.52;78.96;99384.11;1592072;89;20929;-91
2022/06/23 01:16:17;;;;;;;5.17;4.33;;;;;;;14.53;78.82;99383.62;1609158;89;20924;-91
2022/06/23 01:18:55;;;;;;;6.30;4.60;;;;;;;14.54;78.81;99390.54;1607034;89;21268;-90
2022/06/23 01:21:31;;;;;;;4.97;4.62;;;;;;;14.57;78.76;99397.71;1607055;89;20927;-91
2022/06/23 01:24:42;;;;;;;4.65;4.35;;;;;;;14.59;78.81;99399.72;1607450;89;21449;-89
2022/06/23 01:27:38;;;;;;;5.97;4.20;;;;;;;14.60;78.74;99396.09;1592256;89;21017;-91
2022/06/23 01:30:07;;;;;;;4.95;4.55;;;;;;;14.62;78.67;99393.31;1611129;89;20975;-91
2022/06/23 01:32:39;;;;;;;5.42;5.03;;;;;;;14.63;78.66;99402.88;1590948;89;21491;-91
2022/06/23 01:35:32;;;;;;;4.80;4.50;;;;;;;14.66;78.68;99401.28;1599687;89;20930;-91
2022/06/23 01:38:10;;;;;;;5.83;5.00;;;;;;;14.69;78.51;99397.01;1607058;89;20948;-90
2022/06/23 01:40:56;;;;;;;5.33;4.92;;;;;;;14.70;78.48;99403.47;1606876;89;20967;-91
2022/06/23 01:43:36;;;;;;;5.08;4.78;;;;;;;14.70;78.44;99406.11;1607118;89;20900;-90
2022/06/23 01:46:22;;;;;;;6.15;4.58;;;;;;;14.71;78.20;99412.20;1607038;89;21794;-89
2022/06/23 01:48:59;;;;;;;4.17;3.87;;;;;;;14.71;78.23;99413.52;1606966;89;20973;-91
2022/06/23 01:51:37;;;;;;;4.75;4.45;;;;;;;14.74;78.06;99410.61;1606354;89;20987;-91
2022/06/23 01:54:16;;;;;;;6.08;5.15;;;;;;;14.75;78.19;99414.89;1606958;88;20952;-90
2022/06/23 01:57:03;;;;;;;7.25;4.78;;;;;;;14.76;78.18;99409.94;1606908;89;20932;-90
2022/06/23 01:59:54;;;;;;;6.28;5.78;;;;;;;14.76;78.20;99413.90;1607243;89;21472;-91
2022/06/23 02:02:32;;;;;;;6.53;6.03;;;;;;;14.79;78.16;99412.80;1606888;89;20896;-90
2022/06/23 02:05:22;;;;;;;5.72;5.30;;;;;;;14.80;78.17;99413.13;1635850;86;20943;-90
2022/06/23 02:07:57;;;;;;;5.20;4.75;;;;;;;14.81;78.04;99416.13;1639643;87;21461;-91
2022/06/23 02:10:41;;;;;;;5.45;5.05;;;;;;;14.82;77.91;99422.55;1640077;87;20924;-90
2022/06/23 02:13:14;;;;;;;6.30;5.75;;;;;;;14.82;77.94;99423.05;1594739;87;21210;-91
2022/06/23 02:16:07;;;;;;;6.53;5.75;;;;;;;14.82;77.85;99420.41;1640315;87;20996;-90
2022/06/23 02:18:48;;;;;;;5.00;4.60;;;;;;;14.86;77.91;99423.09;1639734;87;20989;-89
2022/06/23 02:21:41;;;;;;;5.20;4.80;;;;;;;14.86;77.64;99418.64;1614871;89;20994;-91
2022/06/23 02:24:32;;;;;;;8.43;4.60;;;;;;;14.91;77.65;99428.25;1587878;89;21011;-91
2022/06/23 02:27:24;;;;;;;5.58;5.08;;;;;;;14.91;77.65;99428.25;1613686;89;21200;-91
2022/06/23 02:33:20;;;;;;;5.50;4.95;;;;;;;15.00;77.44;99434.95;1798549;79;22633;-90
2022/06/23 02:35:58;;;;;;;5.60;4.47;;;;;;;14.97;77.33;99434.76;1759173;80;21374;-92
2022/06/23 02:38:45;;;;;;;5.45;4.95;;;;;;;15.00;77.09;99442.87;1758427;81;21205;-91
2022/06/23 02:41:18;;;;;;;5.03;4.30;;;;;;;15.01;77.00;99440.08;1740298;81;21315;-91
2022/06/23 02:43:52;;;;;;;4.33;3.67;;;;;;;15.01;76.86;99449.83;1758936;80;20908;-91
2022/06/23 02:46:54;;;;;;;5.62;3.90;;;;;;;15.02;76.74;99438.27;1759213;80;21432;-92
2022/06/23 02:49:49;;;;;;;3.80;3.50;;;;;;;15.06;76.48;99433.03;1759111;80;21441;-91
2022/06/23 02:52:50;;;;;;;4.08;3.77;;;;;;;15.06;76.48;99433.03;1758957;80;21132;-93
2022/06/23 02:55:43;;;;;;;3.95;3.75;;;;;;;15.07;76.07;99434.21;1756131;80;20845;-93
2022/06/23 02:58:22;;;;;;;4.10;3.80;;;;;;;15.07;75.91;99439.49;1759164;80;20873;-92
2022/06/23 03:01:04;;;;;;;2.92;2.80;;;;;;;15.03;75.67;99441.23;1758671;80;20987;-92
2022/06/23 03:03:43;;;;;;;6.35;3.40;;;;;;;15.03;75.67;99441.23;1758669;80;21426;-93
2022/06/23 03:06:27;;;;;;;3.87;2.90;;;;;;;15.03;75.71;99446.52;1759254;80;21080;-92
2022/06/23 03:09:02;;;;;;;3.65;3.35;;;;;;;15.00;75.67;99447.65;1759328;80;20936;-93
2022/06/23 03:11:52;;;;;;;3.70;3.40;;;;;;;15.01;75.64;99456.42;1746633;81;20929;-93
2022/06/23 03:14:55;;;;;;;4.12;3.27;;;;;;;15.01;75.68;99458.56;1759296;80;21050;-93
2022/06/23 03:17:39;;;;;;;3.87;3.22;;;;;;;15.00;75.74;99456.89;1759009;80;20920;-93
2022/06/23 03:20:24;;;;;;;3.80;3.50;;;;;;;15.00;75.71;99458.21;1759307;81;21118;-92
2022/06/23 03:23:08;;;;;;;5.17;3.80;;;;;;;14.99;75.68;99460.52;1758942;81;20849;-93
2022/06/23 03:25:44;;;;;;;4.10;3.83;;;;;;;14.98;75.91;99464.62;1759659;80;20892;-91
2022/06/23 03:28:35;;;;;;;5.08;4.58;;;;;;;14.99;76.02;99468.94;1758942;81;20983;-93
2022/06/23 03:31:24;;;;;;;4.67;4.37;;;;;;;15.00;75.79;99456.89;1759246;80;20932;-93
2022/06/23 03:34:00;;;;;;;5.58;4.92;;;;;;;15.00;75.79;99456.89;1759390;80;21176;-92
2022/06/23 03:36:41;;;;;;;4.45;4.15;;;;;;;15.06;75.60;99469.50;1759329;81;20932;-93
2022/06/23 03:42:23;;;;;;;5.75;3.98;;;;;;;15.15;75.27;99474.87;1759323;81;20987;-93
2022/06/23 03:44:57;;;;;;;4.05;3.50;;;;;;;15.20;75.04;99484.49;1758761;81;20936;-94
2022/06/23 03:47:44;;;;;;;3.87;3.58;;;;;;;15.20;75.04;99484.49;1758636;80;22165;-93
2022/06/23 03:50:34;;;;;;;4.70;3.47;;;;;;;15.23;75.01;99487.67;1759387;80;20908;-92
2022/06/23 03:53:38;;;;;;;3.10;2.87;;;;;;;15.26;74.92;99486.54;1758890;81;20931;-94
2022/06/23 03:56:08;;;;;;;6.15;3.20;;;;;;;15.32;74.80;99488.59;1759086;81;20967;-92
2022/06/23 03:58:49;;;;;;;3.37;3.12;;;;;;;15.32;74.80;99488.59;1758987;81;20900;-91
2022/06/23 04:01:20;;;;;;;3.75;3.45;;;;;;;15.34;74.58;99489.27;1742733;81;21212;-92
2022/06/23 04:04:06;;;;;;;5.50;3.42;;;;;;;15.40;74.60;99491.78;1758542;81;20912;-94
2022/06/23 04:06:41;;;;;;;2.92;2.72;;;;;;;15.42;74.08;99493.29;1743477;81;21398;-92
2022/06/23 04:09:32;;;;;;;2.75;2.65;;;;;;;15.46;74.29;99495.15;1758205;81;20901;-91
2022/06/23 04:12:14;;;;;;;5.05;4.58;;;;;;;15.50;74.31;99489.41;1758350;81;20947;-93
2022/06/23 04:14:46;;;;;;;3.70;3.40;;;;;;;15.55;73.93;99494.23;1758654;81;21136;-92
2022/06/23 04:17:34;;;;;;;3.70;3.40;;;;;;;15.61;73.76;99490.17;1758931;80;20912;-93
2022/06/23 04:20:17;;;;;;;3.58;3.37;;;;;;;15.64;73.17;99498.61;1758599;81;20928;-93
2022/06/23 04:23:15;;;;;;;3.65;3.35;;;;;;;15.67;72.98;99505.39;1758891;81;20893;-91
2022/06/23 04:26:08;;;;;;;2.92;2.77;;;;;;;15.70;72.79;99510.39;1746015;81;20872;-93
2022/06/23 04:28:42;;;;;;;3.20;3.00;;;;;;;15.70;71.97;99506.43;1759017;78;21973;-92
2022/06/23 04:31:16;;;;;;;3.33;3.10;;;;;;;15.67;71.81;99510.21;1757010;81;21026;-91
2022/06/23 04:33:46;;;;;;;3.40;3.20;;;;;;;15.67;72.08;99508.03;1745502;81;20983;-92
2022/06/23 04:36:25;;;;;;;3.08;2.87;;;;;;;15.71;71.81;99504.97;1745503;82;20968;-94
2022/06/23 04:39:06;;;;;;;3.17;2.98;;;;;;;15.70;71.66;99507.25;1745542;81;20984;-91
2022/06/23 04:41:45;;;;;;;3.15;2.85;;;;;;;15.72;71.83;99507.14;1745596;82;21270;-92
2022/06/23 04:44:22;;;;;;;2.58;2.37;;;;;;;15.74;71.63;99515.25;1746066;82;20980;-91
2022/06/23 04:46:56;;;;;;;4.10;2.85;;;;;;;15.78;71.19;99521.05;1735965;81;20936;-91
2022/06/23 04:49:27;;;;;;;3.60;2.95;;;;;;;15.80;71.05;99520.41;1746826;81;20878;-92
2022/06/23 04:51:58;;;;;;;4.10;2.85;;;;;;;15.88;71.20;99532.88;1746481;81;20862;-95
2022/06/23 04:54:42;;;;;;;3.77;3.47;;;;;;;15.95;71.01;99527.31;1745693;81;21864;-93
2022/06/23 04:57:31;;;;;;;2.98;2.77;;;;;;;16.00;70.25;99530.31;1729266;81;21011;-95
2022/06/23 05:00:00;;;;;;;3.72;3.17;;;;;;;15.96;70.08;99536.89;1745640;81;21754;-93
2022/06/23 05:02:37;;;;;;;3.77;3.33;;;;;;;16.00;70.19;99540.06;1746053;81;20932;-94
2022/06/23 05:05:21;;;;;;;3.40;3.10;;;;;;;16.02;70.00;99545.53;1745600;81;20869;-94
2022/06/23 05:08:00;;;;;;;3.83;3.52;;;;;;;16.08;69.79;99550.72;1745571;81;20913;-94
2022/06/23 05:10:36;;;;;;;3.35;3.15;;;;;;;16.15;69.80;99548.61;1745329;79;20819;-95
2022/06/23 05:13:09;;;;;;;2.92;2.72;;;;;;;16.31;69.87;99549.71;1744913;81;20924;-95
2022/06/23 05:15:49;;;;;;;3.17;2.60;;;;;;;16.53;69.39;99543.89;1745588;81;21438;-94
2022/06/23 05:18:21;;;;;;;3.90;3.35;;;;;;;16.77;68.55;99545.02;1743421;78;20842;-92
2022/06/23 05:20:56;;;;;;;5.50;3.60;;;;;;;16.94;67.82;99549.42;1745797;81;21113;-95
2022/06/23 05:23:27;;;;;;;2.80;2.60;;;;;;;17.03;67.00;99550.29;1746049;81;20957;-94
2022/06/23 05:25:56;;;;;;;2.87;2.47;;;;;;;17.11;66.38;99556.92;1745549;81;20877;-93
2022/06/23 05:28:29;;;;;;;2.92;2.72;;;;;;;17.20;66.10;99557.78;1746644;82;20944;-91
2022/06/23 05:31:01;;;;;;;3.70;2.30;;;;;;;17.29;65.71;99557.31;1745931;81;20873;-93
2022/06/23 05:33:32;;;;;;;3.30;3.00;;;;;;;17.54;65.59;99551.55;1745431;81;21208;-94
2022/06/23 05:36:06;;;;;;;2.67;2.58;;;;;;;17.75;64.77;99555.08;1745939;81;21027;-95
2022/06/23 05:38:55;;;;;;;2.50;2.40;;;;;;;17.91;64.08;99558.27;1744980;81;20992;-96
2022/06/23 05:41:34;;;;;;;2.12;2.02;;;;;;;18.07;62.89;99563.55;1745614;82;20980;-93
2022/06/23 05:44:04;;;;;;;2.58;2.08;;;;;;;18.31;62.96;99564.55;1745989;81;20901;-94
2022/06/23 05:46:31;;;;;;;2.45;2.27;;;;;;;18.71;62.08;99552.17;1745870;81;21198;-94
2022/06/23 05:49:01;;;;;;;3.85;2.12;;;;;;;19.35;62.05;99552.91;1745641;80;20948;-93
2022/06/23 05:51:42;;;;;;;4.10;3.70;;;;;;;20.17;58.61;99548.34;1745554;81;20909;-92
2022/06/23 05:54:30;;;;;;;4.05;2.72;;;;;;;20.89;56.45;99546.92;1746415;80;21100;-93
2022/06/23 05:57:32;;;;;;;3.72;3.40;;;;;;;21.56;54.63;99537.05;1745554;82;20870;-95
2022/06/23 06:00:28;;;;;;;2.58;2.17;;;;;;;22.23;52.27;99539.81;1745506;81;21957;-95
2022/06/23 06:03:21;;;;;;;2.50;2.37;;;;;;;22.74;50.99;99539.51;1746068;81;20874;-95
2022/06/23 06:05:51;;;;;;;5.10;4.12;;;;;;;23.18;50.47;99541.78;1745236;78;20837;-95
2022/06/23 06:08:31;;;;;;;1.67;1.57;;;;;;;23.65;49.26;99548.59;1736498;82;20897;-91
2022/06/23 06:11:02;;;;;;;4.10;2.10;;;;;;;24.12;48.12;99545.47;1747807;81;20952;-90
2022/06/23 06:13:32;;;;;;;1.55;1.47;;;;;;;24.68;46.68;99548.69;1747871;81;21239;-94
2022/06/23 06:15:59;;;;;;;1.52;1.45;;;;;;;25.06;45.09;99551.47;1736635;82;21011;-93
2022/06/23 06:18:38;;;;;;;2.37;1.65;;;;;;;25.28;44.13;99550.67;1745885;82;20973;-93
2022/06/23 06:21:08;;;;;;;2.08;1.30;;;;;;;25.53;43.64;99560.66;1745918;81;20930;-93
2022/06/23 06:23:53;;;;;;;1.27;1.27;;;;;;;25.84;43.16;99562.52;1745592;81;20881;-94
2022/06/23 06:26:24;;;;;;;1.62;1.57;;;;;;;26.21;42.92;99557.27;1746321;82;22758;-92
2022/06/23 06:28:52;;;;;;;1.42;1.32;;;;;;;26.57;41.94;99550.33;1745791;81;20972;-92
2022/06/23 06:31:33;;;;;;;1.57;1.20;;;;;;;26.82;40.59;99548.41;1735194;82;21020;-94
2022/06/23 06:34:14;;;;;;;1.52;1.42;;;;;;;27.08;40.17;99551.30;1734910;81;20992;-93
2022/06/23 06:36:45;;;;;;;1.50;1.40;;;;;;;27.37;39.97;99558.31;1745349;81;20972;-94
2022/06/23 06:39:33;;;;;;;1.37;1.32;;;;;;;27.69;39.34;99548.63;1745238;81;20944;-92
2022/06/23 06:42:07;;;;;;;1.17;1.10;;;;;;;27.94;38.48;99551.16;1745209;81;21011;-94
2022/06/23 06:44:35;;;;;;;1.50;1.20;;;;;;;28.12;37.75;99552.93;1745754;80;20886;-93
2022/06/23 06:47:02;;;;;;;1.60;1.50;;;;;;;28.29;37.81;99555.77;1745477;81;20945;-92
2022/06/23 06:49:29;;;;;;;1.60;1.50;;;;;;;28.38;36.21;99552.19;1745527;80;21522;-93
2022/06/23 06:51:56;;;;;;;1.22;1.12;;;;;;;28.50;36.07;99551.16;1745487;79;21852;-92
2022/06/23 06:54:31;;;;;;;2.35;1.65;;;;;;;28.68;36.15;99554.75;1745223;81;20995;-90
2022/06/23 06:57:02;;;;;;;2.33;1.55;;;;;;;28.82;35.94;99545.35;1745418;81;20904;-93
2022/06/23 07:00:05;;;;;;;1.40;1.30;;;;;;;28.81;35.52;99555.84;1735171;82;21004;-93
2022/06/23 07:02:46;;;;;;;1.55;1.40;;;;;;;28.77;35.44;99555.20;1745310;81;21414;-91
2022/06/23 07:05:47;;;;;;;81.17;73.37;;;;;;;28.57;35.80;99560.48;1745829;81;21185;-94
2022/06/23 07:08:26;;;;;;;2.60;2.37;;;;;;;28.53;35.13;99560.66;1746072;81;20972;-94
2022/06/23 07:11:01;;;;;;;6.22;1.80;;;;;;;28.34;35.44;99558.56;1745347;81;20940;-93
2022/06/23 07:13:44;;;;;;;2.62;1.10;;;;;;;28.39;34.41;99565.45;1745528;80;20984;-91
2022/06/23 07:16:35;;;;;;;3.25;2.30;;;;;;;28.48;34.49;99566.76;1745288;81;20989;-95
2022/06/23 07:19:37;;;;;;;1.30;1.20;;;;;;;28.67;34.44;99573.36;1745711;81;21130;-93
2022/06/23 07:22:27;;;;;;;1.25;1.20;;;;;;;28.86;34.43;99576.75;1745865;81;20882;-92
2022/06/23 07:25:04;;;;;;;2.47;1.60;;;;;;;29.12;34.67;99575.39;1745871;81;20913;-93
2022/06/23 07:27:46;;;;;;;2.52;1.75;;;;;;;29.40;34.56;99572.44;1745552;82;20901;-93
2022/06/23 07:30:21;;;;;;;1.57;1.50;;;;;;;29.33;34.01;99577.44;1745924;81;20984;-93
2022/06/23 07:33:24;;;;;;;1.27;1.17;;;;;;;29.21;34.65;99576.66;1744583;81;21060;-93
2022/06/23 07:36:26;;;;;;;1.05;1.05;;;;;;;29.25;34.10;99578.36;1746145;82;20952;-94
2022/06/23 07:39:12;;;;;;;1.57;1.10;;;;;;;29.44;33.43;99581.16;1746067;82;21011;-91
2022/06/23 07:41:44;;;;;;;1.27;1.17;;;;;;;29.52;33.49;99583.99;1745889;81;21007;-92
2022/06/23 07:44:22;;;;;;;5.47;1.42;;;;;;;29.74;33.76;99586.31;1742478;81;21422;-92
2022/06/23 07:46:50;;;;;;;1.45;1.27;;;;;;;29.98;32.68;99584.02;1738135;81;21253;-92
2022/06/23 07:49:17;;;;;;;1.55;1.42;;;;;;;30.28;32.91;99586.41;1746068;82;20920;-91
2022/06/23 07:51:43;;;;;;;1.40;1.30;;;;;;;30.63;32.53;99590.70;1746311;81;20901;-92
2022/06/23 07:54:14;;;;;;;1.40;1.30;;;;;;;30.82;31.96;99590.70;1746547;81;21028;-92
2022/06/23 07:56:45;;;;;;;2.45;1.17;;;;;;;30.82;32.01;99596.66;1746375;81;21484;-92
2022/06/23 07:59:14;;;;;;;1.92;0.95;;;;;;;30.97;31.80;99598.22;1746366;80;21224;-91
2022/06/23 08:02:02;;;;;;;1.22;1.12;;;;;;;30.98;31.05;99604.75;1746332;81;20968;-92
2022/06/23 08:04:58;;;;;;;1.47;1.37;;;;;;;30.97;31.54;99604.48;1746236;79;20991;-89
2022/06/23 08:07:25;;;;;;;1.10;0.85;;;;;;;30.75;31.05;99609.03;1746953;81;21011;-90
2022/06/23 08:09:53;;;;;;;2.15;1.50;;;;;;;30.72;31.17;99613.56;1735578;80;21389;-88
2022/06/23 08:18:34;;;;;;;1.02;0.78;;;;;;;31.26;30.93;99621.89;1746053;81;20936;-92
2022/06/23 08:21:20;;;;;;;2.98;2.42;;;;;;;31.38;29.87;99620.39;1735342;80;21426;-92
2022/06/23 08:24:07;;;;;;;3.45;1.77;;;;;;;31.46;30.32;99614.56;1745954;81;20885;-91
2022/06/23 08:26:35;;;;;;;2.72;1.40;;;;;;;31.66;30.18;99623.95;1745757;81;21177;-90
2022/06/23 08:29:04;;;;;;;1.82;0.85;;;;;;;31.78;29.26;99624.09;1745635;81;20932;-91
2022/06/23 08:31:31;;;;;;;1.98;1.00;;;;;;;31.84;29.27;99627.68;1746002;79;20924;-90
2022/06/23 08:33:59;;;;;;;2.60;1.05;;;;;;;31.96;29.26;99626.16;1745756;80;20897;-91
2022/06/23 08:36:39;;;;;;;1.17;1.07;;;;;;;31.90;28.50;99629.89;1745739;81;20874;-91
2022/06/23 08:39:24;;;;;;;1.90;1.50;;;;;;;31.93;29.27;99636.17;1745735;82;21090;-93
2022/06/23 08:42:05;;;;;;;2.33;1.60;;;;;;;31.94;28.37;99637.25;1745617;81;20991;-93
2022/06/23 08:45:14;;;;;;;2.17;1.40;;;;;;;31.83;28.70;99631.45;1745677;78;20924;-91
2022/06/23 08:48:17;;;;;;;3.75;1.67;;;;;;;31.79;28.36;99637.95;1745678;80;20906;-93
2022/06/23 08:50:53;;;;;;;3.12;1.32;;;;;;;31.49;28.88;99645.20;1745789;81;21390;-91
2022/06/23 08:53:31;;;;;;;1.52;0.90;;;;;;;31.49;29.09;99634.36;1745868;81;21138;-94
2022/06/23 08:56:15;;;;;;;1.37;1.00;;;;;;;31.55;28.16;99633.36;1742110;81;20917;-93
2022/06/23 08:58:50;;;;;;;2.65;0.95;;;;;;;31.56;27.43;99647.72;1746033;78;21383;-94
2022/06/23 09:01:31;;;;;;;1.90;1.12;;;;;;;31.53;27.83;99638.21;1745249;81;20962;-94
2022/06/23 09:04:26;;;;;;;1.20;0.90;;;;;;;31.61;27.58;99647.77;1746521;78;20889;-92
2022/06/23 09:07:19;;;;;;;2.00;0.65;;;;;;;31.56;27.59;99646.36;1745856;81;21655;-93
2022/06/23 09:09:55;;;;;;;1.37;0.82;;;;;;;31.50;27.86;99647.38;1735508;82;20838;-89
2022/06/23 09:12:46;;;;;;;1.12;0.80;;;;;;;31.28;27.00;99642.78;1718826;82;20936;-93
2022/06/23 09:15:59;;;;;;;0.70;0.70;;;;;;;31.06;27.43;99641.42;1746203;78;21125;-92
2022/06/23 09:18:34;;;;;;;2.25;0.80;;;;;;;30.91;27.61;99647.44;1745862;81;20945;-90
2022/06/23 09:21:21;;;;;;;0.95;0.72;;;;;;;30.84;28.41;99652.19;1728056;81;21126;-92
2022/06/23 09:24:06;;;;;;;3.08;0.62;;;;;;;30.73;27.56;99659.89;1745942;81;21375;-91
2022/06/23 09:27:03;;;;;;;1.30;0.75;;;;;;;30.45;27.34;99671.09;1745803;78;20983;-92
2022/06/23 09:30:06;;;;;;;2.30;0.93;;;;;;;30.16;27.92;99661.66;1737103;82;21512;-94
2022/06/23 09:33:00;;;;;;;3.02;0.98;;;;;;;29.93;29.35;99660.45;1746209;81;20917;-92
2022/06/23 09:35:57;;;;;;;0.80;0.80;;;;;;;29.41;29.67;99649.16;1746318;82;22300;-91
2022/06/23 09:38:50;;;;;;;1.02;0.60;;;;;;;28.84;30.74;99657.94;1746674;82;20929;-93
2022/06/23 09:41:35;;;;;;;1.80;0.80;;;;;;;28.45;31.18;99668.86;1746755;82;20957;-93
2022/06/23 09:44:26;;;;;;;0.57;0.57;;;;;;;28.05;31.26;99662.74;1745798;79;20934;-92
2022/06/23 09:47:25;;;;;;;1.12;0.57;;;;;;;27.69;32.02;99655.04;1745428;81;20924;-92
2022/06/23 09:50:16;;;;;;;3.90;0.50;;;;;;;27.53;32.24;99661.88;1745247;81;21109;-92
2022/06/23 09:53:28;;;;;;;0.70;0.70;;;;;;;27.42;32.69;99669.38;1745174;81;21016;-94
2022/06/23 09:56:19;;;;;;;2.45;0.50;;;;;;;27.33;33.42;99672.90;1745850;81;21422;-92
2022/06/23 09:59:03;;;;;;;1.07;0.78;;;;;;;27.27;33.41;99668.41;1745446;81;21402;-93
2022/06/23 10:01:56;;;;;;;2.58;0.57;;;;;;;27.42;33.14;99676.11;1745412;81;20976;-94
2022/06/23 10:04:43;;;;;;;2.80;0.62;;;;;;;27.58;33.21;99670.09;1745472;82;21119;-92
2022/06/23 10:07:44;;;;;;;1.75;0.50;;;;;;;27.73;33.23;99676.44;1744871;81;20956;-92
2022/06/23 10:10:22;;;;;;;1.85;0.42;;;;;;;27.84;32.43;99677.54;1745916;78;20949;-91
2022/06/23 10:13:29;;;;;;;3.40;0.40;;;;;;;27.84;32.41;99678.89;1747459;78;20972;-91
2022/06/23 10:16:05;;;;;;;1.87;0.50;;;;;;;27.87;32.54;99678.45;1747468;78;20929;-91
2022/06/23 10:18:53;;;;;;;1.12;0.57;;;;;;;27.96;32.71;99682.99;1746441;78;21066;-91
2022/06/23 10:21:26;;;;;;;1.75;0.50;;;;;;;27.98;32.84;99687.63;1745744;82;21441;-92
2022/06/23 10:23:58;;;;;;;1.70;0.40;;;;;;;27.87;32.70;99685.19;1745593;81;21039;-92
2022/06/23 10:26:42;;;;;;;1.22;0.40;;;;;;;27.77;33.36;99688.91;1745483;81;20885;-92
2022/06/23 10:29:57;;;;;;;0.68;0.30;;;;;;;27.59;33.00;99698.69;1745525;81;20939;-91
2022/06/23 10:33:10;;;;;;;4.65;0.98;;;;;;;27.41;32.99;99698.69;1745430;82;21121;-89
2022/06/23 10:35:45;;;;;;;0.60;0.25;;;;;;;27.24;32.39;99693.91;1745229;81;20869;-91
2022/06/23 10:38:27;;;;;;;2.95;0.30;;;;;;;27.25;32.70;99694.73;1745684;81;21458;-91
2022/06/23 10:41:42;;;;;;;1.35;0.30;;;;;;;27.25;31.87;99696.07;1744176;81;20917;-91
2022/06/23 10:44:23;;;;;;;1.52;0.33;;;;;;;27.09;32.12;99695.58;1745861;82;20857;-91
2022/06/23 10:47:15;;;;;;;0.60;0.35;;;;;;;27.02;32.58;99701.56;1736157;81;21131;-91
2022/06/23 10:50:11;;;;;;;3.08;0.72;;;;;;;26.97;32.85;99709.48;1745935;81;20913;-91
2022/06/23 10:53:11;;;;;;;0.28;0.20;;;;;;;26.87;32.99;99699.74;1745969;81;20897;-93
2022/06/23 10:55:52;;;;;;;2.62;0.40;;;;;;;26.81;32.56;99707.34;1746073;82;21398;-92
2022/06/23 10:58:42;;;;;;;6.35;1.27;;;;;;;26.73;32.62;99703.61;1746058;81;20857;-91
2022/06/23 11:01:23;;;;;;;1.12;0.50;;;;;;;26.64;32.92;99709.26;1745909;82;21220;-95
2022/06/23 11:04:14;;;;;;;5.35;1.50;;;;;;;26.82;33.76;99712.52;1746159;81;21049;-91
2022/06/23 11:06:54;;;;;;;1.22;0.30;;;;;;;26.92;33.97;99695.04;1746113;81;20853;-87
2022/06/23 11:09:43;;;;;;;0.93;0.40;;;;;;;27.21;33.26;99696.22;1745928;81;20984;-93
2022/06/23 11:12:27;;;;;;;3.60;0.40;;;;;;;27.38;33.66;99704.53;1745939;81;21007;-91
2022/06/23 11:15:14;;;;;;;1.47;0.30;;;;;;;27.64;33.55;99709.60;1745652;81;21192;-91
2022/06/23 11:18:05;;;;;;;0.75;0.20;;;;;;;27.78;32.03;99707.55;1745451;81;20980;-90
2022/06/23 11:20:57;;;;;;;0.20;0.20;;;;;;;27.59;32.37;99708.12;1746560;78;20964;-91
2022/06/23 11:24:00;;;;;;;1.32;0.20;;;;;;;27.54;32.67;99701.22;1746268;81;20889;-92
2022/06/23 11:26:45;;;;;;;0.20;0.20;;;;;;;27.49;33.20;99717.24;1735524;82;20889;-90
2022/06/23 11:29:28;;;;;;;0.13;0.10;;;;;;;27.32;33.07;99712.16;1745773;80;21081;-91
2022/06/23 11:32:13;;;;;;;;;;;;;;;26.97;33.28;99718.06;1748513;82;20917;-90
2022/06/23 11:34:51;;;;;;;0.20;0.20;;;;;;;26.47;33.51;99715.66;1754020;81;20131;-90
2022/06/23 11:37:39;;;;;;;0.98;0.30;;;;;;;26.14;34.37;99721.78;1759473;81;20900;-92
2022/06/23 11:40:52;;;;;;;2.52;0.30;;;;;;;25.99;35.13;99719.37;1760537;81;20821;-88
2022/06/23 11:43:33;;;;;;;0.20;0.20;;;;;;;26.04;36.00;99716.36;1749958;78;21227;-90
2022/06/23 11:46:35;;;;;;;1.95;0.17;;;;;;;26.23;35.18;99717.80;1736557;82;20875;-90
2022/06/23 11:49:24;;;;;;;0.90;0.40;;;;;;;26.36;35.12;99718.23;1735771;82;20867;-92
2022/06/23 11:52:29;;;;;;;0.60;0.30;;;;;;;26.44;34.30;99723.36;1736347;82;20922;-94
2022/06/23 11:55:32;;;;;;;0.88;0.50;;;;;;;26.51;34.53;99725.47;1721205;82;20955;-92
2022/06/23 11:58:40;;;;;;;1.87;0.33;;;;;;;26.46;34.58;99734.19;1735227;82;21369;-91
2022/06/23 12:01:17;;;;;;;2.27;0.20;;;;;;;26.37;34.86;99734.66;1736223;80;20907;-91
2022/06/23 12:07:19;;;;;;;2.33;0.20;;;;;;;25.73;35.08;99739.12;1736673;81;20874;-93
2022/06/23 12:10:09;;;;;;;1.05;0.40;;;;;;;25.55;34.75;99745.18;1729856;81;20962;-92
2022/06/23 12:12:36;;;;;;;0.40;0.30;;;;;;;25.53;34.85;99750.75;1736080;80;21123;-91
2022/06/23 12:15:05;;;;;;;3.75;0.20;;;;;;;25.60;34.79;99758.27;1735964;81;20985;-93
2022/06/23 12:17:38;;;;;;;0.95;0.30;;;;;;;25.54;34.11;99749.70;1736477;81;20943;-91
2022/06/23 12:20:54;;;;;;;0.95;0.45;;;;;;;25.49;35.12;99745.50;1737828;80;20911;-93
2022/06/23 12:23:28;;;;;;;1.70;0.40;;;;;;;25.55;35.56;99747.34;1738113;81;20974;-90
2022/06/23 12:26:30;;;;;;;2.52;0.30;;;;;;;25.44;34.73;99753.36;1736774;80;21190;-92
2022/06/23 12:29:11;;;;;;;2.10;0.30;;;;;;;25.35;34.65;99757.31;1737741;80;20954;-92
2022/06/23 12:32:05;;;;;;;1.02;0.30;;;;;;;25.26;35.10;99758.55;1737709;80;20982;-92
2022/06/23 12:34:43;;;;;;;0.33;0.25;;;;;;;25.20;35.31;99750.31;1737945;80;20978;-91
2022/06/23 12:37:53;;;;;;;0.23;0.20;;;;;;;25.06;35.07;99747.31;1737488;80;20801;-89
2022/06/23 12:40:52;;;;;;;0.98;0.47;;;;;;;24.83;35.33;99754.43;1736060;80;21304;-91
2022/06/23 12:43:51;;;;;;;1.85;0.30;;;;;;;24.53;35.54;99744.64;1737919;81;21009;-91
2022/06/23 12:46:32;;;;;;;1.02;0.40;;;;;;;24.41;36.28;99750.57;1737635;80;20903;-90
2022/06/23 12:49:36;;;;;;;1.25;0.47;;;;;;;24.37;36.74;99744.48;1737757;80;20900;-90
2022/06/23 12:52:40;;;;;;;0.43;0.43;;;;;;;24.33;36.97;99746.73;1737212;82;21424;-92
2022/06/23 12:55:30;;;;;;;2.02;0.50;;;;;;;24.30;36.45;99741.80;1735731;82;21237;-91
2022/06/23 12:58:30;;;;;;;1.07;0.25;;;;;;;24.22;36.88;99752.69;1735548;81;21416;-91
2022/06/23 13:01:08;;;;;;;0.50;0.35;;;;;;;24.10;36.85;99748.45;1735564;82;20998;-90
2022/06/23 13:03:40;;;;;;;0.60;0.25;;;;;;;23.96;37.42;99748.08;1735154;82;20911;-90
2022/06/23 13:06:19;;;;;;;0.50;0.47;;;;;;;23.88;37.73;99748.24;1735663;82;21064;-90